Time;durP1;ratioP1;P1;durP2;ratioP2;P2;SDS_P1;SDS_P2;PMS_P1;PMS_P2;Temp;Humidity;BMP_temperature;BMP_pressure;BME280_temperature;BME280_humidity;BME280_pressure;Samples;Min_cycle;Max_cycle;Signal;HPM_P1;HPM_P2
2022/12/18 02:33:09;;;;;;;33.30;19.80;;;-1.60;99.90;;;;;;5158088;23;20231;-69
2022/12/18 02:35:38;;;;;;;31.70;19.60;;;-1.50;99.90;;;;;;4969299;28;20196;-70
2022/12/18 02:38:06;;;;;;;33.57;19.63;;;-1.40;99.90;;;;;;4969380;28;20215;-70
2022/12/18 02:40:33;;;;;;;27.17;17.73;;;-1.40;99.90;;;;;;4969317;28;20664;-70
2022/12/18 02:43:04;;;;;;;28.37;17.47;;;-1.30;99.90;;;;;;4969323;28;20212;-69
2022/12/18 02:45:31;;;;;;;27.33;17.80;;;-1.20;99.90;;;;;;4969536;28;20192;-70
2022/12/18 02:47:58;;;;;;;25.10;16.70;;;-1.20;99.90;;;;;;4969215;28;20215;-71
2022/12/18 02:50:34;;;;;;;24.20;15.60;;;-1.20;99.90;;;;;;4969265;28;20211;-70
2022/12/18 02:53:10;;;;;;;25.93;16.20;;;-1.20;99.90;;;;;;4968467;28;20192;-71
2022/12/18 02:55:53;;;;;;;25.40;16.67;;;-1.30;99.90;;;;;;4968337;28;20203;-70
2022/12/18 02:58:25;;;;;;;25.57;16.20;;;-1.20;99.90;;;;;;4967927;28;20196;-70
2022/12/18 03:00:59;;;;;;;25.17;15.93;;;-1.20;99.90;;;;;;4968746;28;20193;-69
2022/12/18 03:03:31;;;;;;;25.83;16.00;;;-1.20;99.90;;;;;;4968249;28;20193;-70
2022/12/18 03:06:05;;;;;;;26.47;16.83;;;-1.10;99.90;;;;;;4968039;28;20225;-70
2022/12/18 03:08:36;;;;;;;26.30;16.70;;;-1.10;99.90;;;;;;4967818;28;20279;-70
2022/12/18 03:11:06;;;;;;;26.23;16.77;;;-1.10;99.90;;;;;;4968639;28;20208;-69
2022/12/18 03:13:36;;;;;;;24.40;15.77;;;-1.10;99.90;;;;;;4968827;28;20207;-70
2022/12/18 03:16:06;;;;;;;25.20;15.73;;;-1.20;99.90;;;;;;4969028;28;20208;-69
2022/12/18 03:18:39;;;;;;;25.53;16.07;;;-1.20;99.90;;;;;;4968773;28;20195;-71
2022/12/18 03:21:10;;;;;;;26.53;16.63;;;-1.30;99.90;;;;;;4969090;28;20659;-70
2022/12/18 03:23:44;;;;;;;26.23;16.83;;;-1.30;99.90;;;;;;4969064;28;20737;-70
2022/12/18 03:26:15;;;;;;;26.63;16.17;;;-1.30;99.90;;;;;;4968818;28;20197;-69
2022/12/18 03:28:46;;;;;;;25.63;16.27;;;-1.30;99.90;;;;;;4968514;28;20227;-70
2022/12/18 03:31:14;;;;;;;25.00;16.53;;;-1.30;99.90;;;;;;4965801;28;20196;-70
2022/12/18 03:33:46;;;;;;;26.87;16.23;;;-1.30;99.90;;;;;;4949378;28;20200;-69
2022/12/18 03:36:15;;;;;;;27.40;16.13;;;-1.30;99.90;;;;;;4948990;28;20224;-69
2022/12/18 03:38:42;;;;;;;24.73;16.07;;;-1.30;99.90;;;;;;4949607;28;20566;-69
2022/12/18 03:41:15;;;;;;;25.67;16.93;;;-1.30;99.90;;;;;;4938448;28;20205;-70
2022/12/18 03:43:51;;;;;;;23.90;15.43;;;-1.40;99.90;;;;;;4936581;29;20193;-70
2022/12/18 03:46:25;;;;;;;23.23;16.00;;;-1.40;99.90;;;;;;4936233;29;20532;-71
2022/12/18 03:49:00;;;;;;;22.50;15.13;;;-1.50;99.90;;;;;;4936440;29;20693;-70
2022/12/18 03:51:35;;;;;;;24.90;15.73;;;-1.50;99.90;;;;;;4936223;29;20198;-70
2022/12/18 03:54:04;;;;;;;22.83;15.03;;;-1.50;99.90;;;;;;4936335;29;20201;-70
2022/12/18 03:56:34;;;;;;;21.47;15.47;;;-1.50;99.90;;;;;;4936300;29;20194;-69
2022/12/18 03:59:03;;;;;;;22.43;15.33;;;-1.50;99.90;;;;;;4936304;29;20304;-71
2022/12/18 04:01:34;;;;;;;23.60;15.60;;;-1.50;99.90;;;;;;4936116;29;20566;-70
2022/12/18 04:04:02;;;;;;;21.43;14.43;;;-1.60;99.90;;;;;;4936473;29;20569;-70
2022/12/18 04:06:38;;;;;;;20.63;14.27;;;-1.60;99.90;;;;;;4935827;29;20213;-70
2022/12/18 04:09:05;;;;;;;22.23;14.53;;;-1.60;99.90;;;;;;4936162;29;20240;-70
2022/12/18 04:11:32;;;;;;;22.17;14.83;;;-1.60;99.90;;;;;;4935689;29;20305;-70
2022/12/18 04:13:59;;;;;;;25.73;15.77;;;-1.60;99.90;;;;;;4934311;29;20224;-71
2022/12/18 04:16:26;;;;;;;21.83;15.13;;;-1.60;99.90;;;;;;4935107;29;20212;-71
2022/12/18 04:18:53;;;;;;;24.03;15.80;;;-1.70;99.90;;;;;;4935982;29;20205;-71
2022/12/18 04:21:21;;;;;;;23.67;16.17;;;-1.70;99.90;;;;;;4935399;29;20623;-71
2022/12/18 04:23:49;;;;;;;24.03;15.17;;;-1.70;99.90;;;;;;4934922;29;20568;-70
2022/12/18 04:26:16;;;;;;;23.50;14.73;;;-1.70;99.90;;;;;;4935234;29;20216;-70
2022/12/18 04:28:42;;;;;;;25.40;15.50;;;-1.70;99.90;;;;;;4935144;29;20226;-70
2022/12/18 04:31:10;;;;;;;22.27;14.67;;;-1.70;99.90;;;;;;4934896;29;20240;-71
2022/12/18 04:33:36;;;;;;;23.83;14.97;;;-1.70;99.90;;;;;;4935143;29;20214;-70
2022/12/18 04:36:03;;;;;;;22.97;14.90;;;-1.70;99.90;;;;;;4932965;29;20220;-66
2022/12/18 04:38:30;;;;;;;21.33;15.23;;;-1.80;99.90;;;;;;4935497;29;20563;-67
2022/12/18 04:40:58;;;;;;;22.67;15.03;;;-1.80;99.90;;;;;;4935549;29;20657;-66
2022/12/18 04:43:25;;;;;;;24.33;15.63;;;-1.80;99.90;;;;;;4934839;29;20224;-66
2022/12/18 04:45:52;;;;;;;24.60;15.37;;;-1.80;99.90;;;;;;4934219;29;20213;-66
2022/12/18 04:48:20;;;;;;;26.70;15.63;;;-1.80;99.90;;;;;;4935073;29;20209;-64
2022/12/18 04:50:47;;;;;;;24.93;16.13;;;-1.80;99.90;;;;;;4935226;29;20249;-66
2022/12/18 04:53:14;;;;;;;23.20;15.33;;;-1.80;99.90;;;;;;4934197;29;20688;-64
2022/12/18 04:55:41;;;;;;;23.27;14.80;;;-1.80;99.90;;;;;;4931909;29;20213;-64
2022/12/18 04:58:09;;;;;;;25.13;15.07;;;-1.90;99.90;;;;;;4934652;29;20230;-66
2022/12/18 05:00:36;;;;;;;23.73;15.20;;;-1.90;99.90;;;;;;4932705;29;20293;-66
2022/12/18 05:03:03;;;;;;;23.37;15.20;;;-1.90;99.90;;;;;;4934593;29;20210;-65
2022/12/18 05:05:30;;;;;;;23.03;14.77;;;-1.90;99.90;;;;;;4934746;29;20315;-65
2022/12/18 05:07:56;;;;;;;23.90;15.97;;;-1.90;99.90;;;;;;4934806;29;20225;-67
2022/12/18 05:10:23;;;;;;;26.50;15.83;;;-2.00;99.90;;;;;;4933760;29;20225;-65
2022/12/18 05:15:35;;;;;;;24.03;14.90;;;-2.00;99.90;;;;;;4933955;29;20682;-65
2022/12/18 05:18:03;;;;;;;24.50;15.47;;;-2.00;99.90;;;;;;4934137;29;20214;-66
2022/12/18 05:20:29;;;;;;;24.07;15.50;;;-2.00;99.90;;;;;;4934766;29;20733;-66
2022/12/18 05:22:57;;;;;;;23.13;15.33;;;-2.00;99.90;;;;;;4932267;29;20209;-65
2022/12/18 05:25:24;;;;;;;23.07;14.53;;;-2.00;99.90;;;;;;4933782;29;20224;-66
2022/12/18 05:27:51;;;;;;;24.50;15.23;;;-2.00;99.90;;;;;;4947438;29;20211;-67
2022/12/18 05:30:18;;;;;;;23.83;15.13;;;-2.10;99.90;;;;;;4953176;28;20228;-65
2022/12/18 05:32:46;;;;;;;23.63;14.80;;;-2.10;99.90;;;;;;4952484;28;20685;-66
2022/12/18 05:35:13;;;;;;;21.33;14.00;;;-2.10;99.90;;;;;;4939564;28;20236;-64
2022/12/18 05:37:40;;;;;;;21.90;14.30;;;-2.10;99.90;;;;;;4933145;29;20217;-66
2022/12/18 05:40:08;;;;;;;22.20;14.50;;;-2.20;99.90;;;;;;4934018;29;20209;-65
2022/12/18 05:42:34;;;;;;;21.70;14.20;;;-2.10;99.90;;;;;;4934178;29;20670;-65
2022/12/18 05:45:01;;;;;;;24.13;15.50;;;-2.10;99.90;;;;;;4933073;29;20604;-66
2022/12/18 05:47:28;;;;;;;20.80;13.60;;;-2.20;99.90;;;;;;4933311;29;20650;-65
2022/12/18 05:49:57;;;;;;;23.53;14.53;;;-2.20;99.90;;;;;;4933024;29;20233;-65
2022/12/18 05:52:24;;;;;;;20.90;13.57;;;-2.20;99.90;;;;;;4929808;29;20229;-65
2022/12/18 05:54:51;;;;;;;21.70;13.20;;;-2.20;99.90;;;;;;4932504;29;20285;-65
2022/12/18 05:57:18;;;;;;;22.67;13.80;;;-2.20;99.90;;;;;;4932561;29;20205;-64
2022/12/18 05:59:44;;;;;;;19.40;13.10;;;-2.20;99.90;;;;;;4932499;29;20197;-65
2022/12/18 06:02:11;;;;;;;23.23;13.50;;;-2.30;99.90;;;;;;4932650;29;20286;-66
2022/12/18 06:04:38;;;;;;;21.73;14.10;;;-2.30;99.90;;;;;;4932961;29;20230;-66
2022/12/18 06:07:06;;;;;;;18.37;12.47;;;-2.30;99.90;;;;;;4931934;29;20240;-65
2022/12/18 06:09:33;;;;;;;21.30;13.43;;;-2.30;99.90;;;;;;4933383;29;20221;-63
2022/12/18 06:12:00;;;;;;;21.83;13.43;;;-2.40;99.90;;;;;;4933858;29;20220;-63
2022/12/18 06:14:27;;;;;;;21.73;14.13;;;-2.30;99.90;;;;;;4934037;29;20571;-63
2022/12/18 06:16:53;;;;;;;20.33;13.27;;;-2.30;99.90;;;;;;4932763;29;20642;-61
2022/12/18 10:13:25;;;;;;;20.33;12.40;;;-3.30;99.90;;;;;;5086800;28;20687;-69
2022/12/18 10:16:01;;;;;;;19.27;12.37;;;-3.30;99.90;;;;;;5089489;28;20274;-69
2022/12/18 10:18:51;;;;;;;18.90;12.13;;;-3.20;99.90;;;;;;5068819;28;20192;-70
2022/12/18 10:21:22;;;;;;;17.93;11.37;;;-3.10;99.90;;;;;;5068711;28;20212;-69
2022/12/18 10:23:59;;;;;;;17.43;11.30;;;-3.00;99.90;;;;;;5554595;22;20229;-63
2022/12/18 10:26:26;;;;;;;18.10;12.20;;;-2.90;99.90;;;;;;5048083;28;20211;-65
2022/12/18 10:28:56;;;;;;;18.17;11.10;;;-3.00;99.90;;;;;;5048177;28;20201;-64
2022/12/18 10:31:24;;;;;;;16.83;10.90;;;-3.00;99.90;;;;;;5047241;28;20612;-66
2022/12/18 10:33:54;;;;;;;17.33;12.10;;;-3.00;99.90;;;;;;5048780;28;20221;-65
2022/12/18 10:36:21;;;;;;;15.03;10.67;;;-2.90;99.90;;;;;;5048887;28;20208;-65
2022/12/18 10:38:48;;;;;;;18.30;11.70;;;-2.90;99.90;;;;;;5044807;28;20776;-64
2022/12/18 10:41:26;;;;;;;15.90;10.60;;;-2.90;99.90;;;;;;5049051;28;20193;-72
2022/12/18 10:44:13;;;;;;;16.43;11.70;;;-2.80;99.90;;;;;;5049024;28;20288;-71
2022/12/18 10:46:40;;;;;;;17.40;11.57;;;-2.80;99.90;;;;;;5031725;28;20656;-72
2022/12/18 10:49:20;;;;;;;17.13;11.33;;;-2.80;99.90;;;;;;5034881;28;20562;-73
2022/12/18 10:51:47;;;;;;;19.83;12.90;;;-2.80;99.90;;;;;;5044896;28;20210;-66
2022/12/18 10:54:17;;;;;;;18.73;12.07;;;-2.90;99.90;;;;;;5048238;28;20205;-66
2022/12/18 10:56:44;;;;;;;15.27;10.50;;;-2.90;99.90;;;;;;5048616;28;20209;-66
2022/12/18 10:59:14;;;;;;;17.13;11.33;;;-2.80;99.90;;;;;;5048303;28;20565;-66
2022/12/18 11:01:50;;;;;;;19.57;12.40;;;-2.80;99.90;;;;;;5048046;28;20209;-68
2022/12/18 11:04:20;;;;;;;19.43;11.80;;;-2.80;99.90;;;;;;5047959;28;20201;-68
2022/12/18 11:06:59;;;;;;;15.37;10.23;;;-2.90;99.90;;;;;;5048185;28;20202;-66
2022/12/18 11:09:27;;;;;;;17.53;11.90;;;-2.90;99.90;;;;;;5045827;28;20228;-66
2022/12/18 11:11:56;;;;;;;20.33;13.43;;;-2.90;99.90;;;;;;5047777;28;20228;-65
2022/12/18 11:14:26;;;;;;;22.47;13.73;;;-2.90;99.90;;;;;;5048287;28;20556;-67
2022/12/18 11:16:55;;;;;;;15.90;11.10;;;-2.90;99.90;;;;;;5047992;28;20552;-66
2022/12/18 11:19:33;;;;;;;24.00;15.63;;;-2.90;99.90;;;;;;5046116;28;20664;-69
2022/12/18 11:22:01;;;;;;;20.83;12.87;;;-2.90;99.90;;;;;;5048170;28;20657;-68
2022/12/18 11:24:31;;;;;;;20.57;13.17;;;-3.00;99.90;;;;;;5034265;28;20323;-66
2022/12/18 11:27:01;;;;;;;18.63;12.33;;;-2.90;99.90;;;;;;5032252;28;20201;-65
2022/12/18 11:29:34;;;;;;;17.13;11.87;;;-2.90;99.90;;;;;;5034443;28;20190;-66
2022/12/18 11:32:27;;;;;;;20.00;13.10;;;-2.90;99.90;;;;;;5034406;28;20214;-67
2022/12/18 11:35:01;;;;;;;17.23;10.90;;;-2.90;99.90;;;;;;5025160;28;20647;-64
2022/12/18 11:37:29;;;;;;;15.63;10.60;;;-3.00;99.90;;;;;;5031179;28;20209;-66
2022/12/18 11:40:00;;;;;;;16.80;10.70;;;-3.00;99.90;;;;;;5030287;28;20209;-66
2022/12/18 11:42:35;;;;;;;14.53;10.40;;;-3.00;99.90;;;;;;5029373;28;20194;-65
2022/12/18 11:45:17;;;;;;;16.67;10.77;;;-3.10;99.90;;;;;;5030065;28;20632;-64
2022/12/18 11:47:52;;;;;;;18.53;11.27;;;-3.00;99.90;;;;;;5022014;28;20207;-65
2022/12/18 11:50:24;;;;;;;14.33;10.23;;;-3.00;99.90;;;;;;5023865;28;20625;-64
2022/12/18 11:52:51;;;;;;;15.27;10.30;;;-3.00;99.90;;;;;;5033315;28;20218;-65
2022/12/18 11:55:33;;;;;;;15.60;10.93;;;-3.00;99.90;;;;;;5033784;28;20202;-65
2022/12/18 11:58:08;;;;;;;18.20;11.23;;;-3.00;99.90;;;;;;5033197;28;20201;-66
2022/12/18 12:00:45;;;;;;;15.93;11.40;;;-3.00;99.90;;;;;;5018773;28;20194;-66
2022/12/18 12:04:00;;;;;;;20.20;11.53;;;-3.00;99.90;;;;;;5014555;28;20623;-68
2022/12/18 12:06:38;;;;;;;16.17;10.63;;;-2.90;99.90;;;;;;4963193;28;20573;-70
2022/12/18 12:09:12;;;;;;;15.40;10.40;;;-2.90;99.90;;;;;;5019221;28;20220;-68
2022/12/18 12:11:52;;;;;;;16.70;11.23;;;-2.90;99.90;;;;;;5033496;28;20538;-69
2022/12/18 12:14:32;;;;;;;17.97;10.03;;;-2.90;99.90;;;;;;5033621;28;20308;-68
2022/12/18 12:17:12;;;;;;;16.33;10.20;;;-2.90;99.90;;;;;;5033613;28;20190;-69
2022/12/18 12:19:48;;;;;;;17.43;11.20;;;-2.80;99.90;;;;;;4986068;28;20205;-69
2022/12/18 12:22:23;;;;;;;16.47;10.83;;;-2.80;99.90;;;;;;5034090;28;20558;-70
2022/12/18 12:25:03;;;;;;;15.90;11.23;;;-2.80;99.90;;;;;;5033358;28;20244;-68
2022/12/18 12:27:41;;;;;;;16.60;10.60;;;-2.80;99.90;;;;;;5033986;28;20194;-71
2022/12/18 12:30:10;;;;;;;18.37;12.37;;;-2.80;99.90;;;;;;5033793;28;20186;-70
2022/12/18 12:32:53;;;;;;;17.77;11.53;;;-2.90;99.90;;;;;;5033394;28;20226;-70
2022/12/18 12:35:32;;;;;;;15.67;10.43;;;-2.90;99.90;;;;;;5032898;28;20545;-68
2022/12/18 12:38:09;;;;;;;16.30;10.97;;;-2.90;99.90;;;;;;5033716;28;20186;-71
2022/12/18 12:40:39;;;;;;;18.60;11.30;;;-2.90;99.90;;;;;;5033406;28;20190;-68
2022/12/18 12:43:15;;;;;;;17.60;11.70;;;-3.00;99.90;;;;;;5033293;28;20189;-69
2022/12/18 12:45:48;;;;;;;15.30;10.80;;;-2.90;99.90;;;;;;5033406;28;20281;-69
2022/12/18 12:48:26;;;;;;;19.00;11.73;;;-2.90;99.90;;;;;;5033519;28;20210;-69
2022/12/18 12:50:54;;;;;;;17.67;11.43;;;-3.00;99.90;;;;;;5033442;28;20477;-71
2022/12/18 12:53:27;;;;;;;17.73;11.90;;;-3.00;99.90;;;;;;5033286;28;20230;-71
2022/12/18 12:55:54;;;;;;;24.50;15.90;;;-3.00;99.90;;;;;;5033162;28;20186;-71
2022/12/18 12:58:31;;;;;;;16.93;11.57;;;-3.00;99.90;;;;;;5032873;28;20209;-72
2022/12/18 13:01:09;;;;;;;17.20;11.77;;;-3.00;99.90;;;;;;5033299;28;20198;-71
2022/12/18 13:03:47;;;;;;;18.43;12.00;;;-3.00;99.90;;;;;;5032773;28;20186;-69
2022/12/18 13:06:24;;;;;;;19.03;12.93;;;-3.10;99.90;;;;;;5033117;28;20546;-71
2022/12/18 13:08:57;;;;;;;18.90;12.47;;;-3.00;99.90;;;;;;5033168;28;20209;-71
2022/12/18 13:14:26;;;;;;;17.00;11.50;;;-3.00;99.90;;;;;;5032697;28;20295;-69
2022/12/18 13:17:13;;;;;;;19.73;12.47;;;-3.00;99.90;;;;;;5032839;28;20194;-69
2022/12/18 13:19:41;;;;;;;20.17;11.93;;;-3.10;99.90;;;;;;5032392;28;20217;-69
2022/12/18 13:22:22;;;;;;;17.60;12.33;;;-3.10;99.90;;;;;;5033157;28;20289;-69
2022/12/18 13:24:49;;;;;;;19.43;12.33;;;-3.10;99.90;;;;;;5032374;28;20612;-70
2022/12/18 13:27:48;;;;;;;17.63;12.00;;;-3.10;99.90;;;;;;5032904;28;20202;-69
2022/12/18 13:30:43;;;;;;;17.23;10.47;;;-3.10;99.90;;;;;;5032658;28;20212;-70
2022/12/18 13:33:48;;;;;;;17.10;10.90;;;-3.10;99.90;;;;;;5032550;28;20220;-69
2022/12/18 13:36:29;;;;;;;14.57;9.60;;;-3.10;99.90;;;;;;5032743;28;20198;-70
2022/12/18 13:39:32;;;;;;;15.63;10.53;;;-3.10;99.90;;;;;;5032518;28;20220;-71
2022/12/18 13:45:48;;;;;;;15.33;9.67;;;-3.10;99.90;;;;;;4938931;29;20248;-70
2022/12/18 13:48:21;;;;;;;15.23;8.90;;;-3.20;99.90;;;;;;4914873;29;20282;-73
2022/12/18 19:16:04;;;;;;;24.63;15.63;;;-5.10;99.90;;;;;;6128450;22;1565060;-68
2022/12/18 19:18:31;;;;;;;20.10;13.40;;;-5.10;99.90;;;;;;6222536;23;20161;-69
2022/12/18 19:20:59;;;;;;;19.20;12.83;;;-5.10;99.90;;;;;;6221658;23;20535;-69
2022/12/18 19:23:26;;;;;;;22.80;14.07;;;-5.10;99.90;;;;;;6218577;23;20256;-69
2022/12/18 19:25:53;;;;;;;21.77;13.63;;;-5.20;99.90;;;;;;6188630;23;20198;-68
2022/12/18 19:28:24;;;;;;;19.63;12.87;;;-5.20;99.90;;;;;;6185528;23;20500;-67
2022/12/18 19:30:52;;;;;;;22.30;14.03;;;-5.20;99.90;;;;;;6183421;23;20170;-68
2022/12/18 19:33:21;;;;;;;19.60;12.73;;;-5.20;99.90;;;;;;6185240;23;20209;-69
2022/12/18 19:35:48;;;;;;;20.67;13.60;;;-5.10;99.90;;;;;;6185683;23;20477;-68
2022/12/18 19:38:15;;;;;;;21.13;13.83;;;-5.10;99.90;;;;;;6185482;23;20206;-68
2022/12/18 19:40:42;;;;;;;18.97;12.73;;;-5.10;99.90;;;;;;6184793;23;20192;-68
2022/12/18 19:43:09;;;;;;;17.93;12.80;;;-5.10;99.90;;;;;;6184580;23;20202;-70
2022/12/18 19:45:36;;;;;;;21.63;13.70;;;-5.10;99.90;;;;;;6184385;23;20660;-70
2022/12/18 19:48:03;;;;;;;20.63;12.87;;;-5.10;99.90;;;;;;6185032;23;20204;-69
2022/12/18 19:50:32;;;;;;;20.43;14.20;;;-5.00;99.90;;;;;;6185247;23;20197;-69
2022/12/18 19:52:59;;;;;;;18.77;12.70;;;-5.00;99.90;;;;;;6184536;23;20190;-71
2022/12/18 19:55:26;;;;;;;19.77;12.70;;;-5.00;99.90;;;;;;6185221;23;20182;-69
2022/12/18 19:57:53;;;;;;;19.83;12.30;;;-5.00;99.90;;;;;;6185182;23;20220;-69
2022/12/18 20:00:20;;;;;;;17.77;11.70;;;-5.00;99.90;;;;;;6184162;23;20185;-69
2022/12/18 20:02:46;;;;;;;18.77;12.00;;;-5.10;99.90;;;;;;6184237;23;20198;-69
2022/12/18 20:05:13;;;;;;;20.50;12.83;;;-5.10;99.90;;;;;;6185261;23;20188;-70
2022/12/18 20:07:41;;;;;;;18.37;12.93;;;-5.00;99.90;;;;;;6184354;23;20655;-70
2022/12/18 20:10:14;;;;;;;19.97;13.07;;;-5.10;99.90;;;;;;6183824;23;20676;-70
2022/12/18 20:12:40;;;;;;;20.23;13.23;;;-5.10;99.90;;;;;;6185327;23;20212;-70
2022/12/18 20:15:09;;;;;;;23.10;15.83;;;-5.10;99.90;;;;;;6182633;23;20694;-70
2022/12/18 20:17:35;;;;;;;20.37;13.10;;;-5.10;99.90;;;;;;6183496;23;20206;-69
2022/12/18 20:20:02;;;;;;;18.27;12.20;;;-5.10;99.90;;;;;;6184915;23;20265;-68
2022/12/18 20:22:29;;;;;;;18.80;12.57;;;-5.10;99.90;;;;;;6184503;23;20670;-69
2022/12/18 20:24:57;;;;;;;22.30;13.40;;;-5.00;99.90;;;;;;6185018;23;20178;-69
2022/12/18 20:27:24;;;;;;;19.87;13.33;;;-5.00;99.90;;;;;;6184629;23;20178;-69
2022/12/18 20:29:50;;;;;;;18.70;11.77;;;-5.00;99.90;;;;;;6184780;23;20183;-68
2022/12/18 20:32:17;;;;;;;18.20;12.10;;;-5.00;99.90;;;;;;6184546;23;20183;-69
2022/12/18 20:34:44;;;;;;;20.93;13.23;;;-5.10;99.90;;;;;;6184119;23;20643;-69
2022/12/18 20:37:11;;;;;;;22.30;13.33;;;-5.10;99.90;;;;;;6184842;23;20629;-70
2022/12/18 20:39:37;;;;;;;19.37;13.63;;;-5.10;99.90;;;;;;6184216;23;20190;-69
2022/12/18 20:42:06;;;;;;;20.60;13.07;;;-5.10;99.90;;;;;;6184635;23;20201;-72
2022/12/18 20:44:32;;;;;;;16.60;11.40;;;-5.00;99.90;;;;;;6184026;23;20185;-68
2022/12/18 20:47:01;;;;;;;19.83;13.27;;;-5.10;99.90;;;;;;6184227;23;20185;-69
2022/12/18 20:49:29;;;;;;;18.70;12.83;;;-5.10;99.90;;;;;;6184244;23;20577;-68
